createdAt,value
2023-03-08T00:01:44.569Z,-1.38
2023-03-08T00:04:15.753Z,-1.59
2023-03-08T00:06:59.372Z,-1.59
2023-03-08T00:09:44.172Z,-1.61
2023-03-08T00:12:20.835Z,-1.61
2023-03-08T00:15:10.319Z,-1.63
2023-03-08T00:18:03.873Z,-1.64
2023-03-08T00:20:45.519Z,-1.43
2023-03-08T00:23:21.316Z,-1.44
2023-03-08T00:26:29.610Z,-1.70
2023-03-08T00:28:58.708Z,-1.68
2023-03-08T00:31:38.049Z,-1.57
2023-03-08T00:34:13.236Z,-1.49
2023-03-08T00:36:50.831Z,-1.71
2023-03-08T00:39:30.468Z,-1.73
2023-03-08T00:42:18.376Z,-1.65
2023-03-08T00:44:59.691Z,-1.58
2023-03-08T00:47:36.917Z,-1.51
2023-03-08T00:50:10.672Z,-1.74
2023-03-08T00:52:49.498Z,-1.60
2023-03-08T00:55:23.321Z,-1.73
2023-03-08T00:58:02.356Z,-1.77
2023-03-08T01:00:39.982Z,-1.67
2023-03-08T01:03:31.711Z,-1.55
2023-03-08T01:06:27.209Z,-1.80
2023-03-08T01:09:00.106Z,-1.83
2023-03-08T01:11:47.709Z,-1.79
2023-03-08T01:14:16.547Z,-1.63
2023-03-08T01:16:56.246Z,-1.78
2023-03-08T01:19:23.918Z,-1.81
2023-03-08T01:22:07.209Z,-1.89
2023-03-08T01:24:59.282Z,-1.95
2023-03-08T01:27:49.720Z,-1.87
2023-03-08T01:30:26.641Z,-1.96
2023-03-08T01:33:09.999Z,-1.93
2023-03-08T01:36:01.550Z,-1.94
2023-03-08T01:38:47.412Z,-1.95
2023-03-08T01:41:47.524Z,-1.73
2023-03-08T01:44:30.885Z,-1.95
2023-03-08T01:47:18.651Z,-1.97
2023-03-08T01:49:54.571Z,-1.93
2023-03-08T01:52:45.168Z,-1.70
2023-03-08T01:55:22.089Z,-1.82
2023-03-08T01:58:06.238Z,-1.99
2023-03-08T02:00:42.552Z,-1.93
2023-03-08T02:03:21.424Z,-1.86
2023-03-08T02:06:07.685Z,-1.97
2023-03-08T02:08:43.427Z,-1.78
2023-03-08T02:11:16.014Z,-1.86
2023-03-08T02:13:53.720Z,-1.92
2023-03-08T02:16:40.489Z,-1.68
2023-03-08T02:19:30.709Z,-1.65
2023-03-08T02:22:10.649Z,-1.62
2023-03-08T02:24:49.481Z,-1.74
2023-03-08T02:27:38.725Z,-1.58
2023-03-08T02:30:14.281Z,-1.69
2023-03-08T02:32:45.547Z,-1.76
2023-03-08T02:35:34.478Z,-1.60
2023-03-08T02:38:04.069Z,-1.75
2023-03-08T02:40:38.313Z,-1.83
2023-03-08T02:43:23.060Z,-1.63
2023-03-08T02:46:11.537Z,-1.89
2023-03-08T02:48:53.613Z,-1.88
2023-03-08T02:51:27.356Z,-1.82
2023-03-08T02:54:09.020Z,-1.70
2023-03-08T02:56:40.071Z,-1.73
2023-03-08T02:59:26.498Z,-1.76
2023-03-08T03:01:58.749Z,-1.91
2023-03-08T03:04:37.320Z,-1.77
2023-03-08T03:07:08.793Z,-1.98
2023-03-08T03:09:49.754Z,-2.02
2023-03-08T03:12:19.875Z,-2.02
2023-03-08T03:14:57.604Z,-1.95
2023-03-08T03:17:26.768Z,-2.08
2023-03-08T03:20:05.729Z,-2.04
2023-03-08T03:22:35.365Z,-1.97
2023-03-08T03:25:34.251Z,-2.08
2023-03-08T03:28:23.005Z,-1.98
2023-03-08T03:33:40.135Z,-2.06
2023-03-08T03:36:12.910Z,-2.09
2023-03-08T03:38:47.279Z,-2.03
2023-03-08T03:41:31.129Z,-1.90
2023-03-08T03:44:01.906Z,-2.18
2023-03-08T03:46:36.347Z,-2.07
2023-03-08T03:49:04.098Z,-2.18
2023-03-08T03:51:40.351Z,-2.18
2023-03-08T03:54:23.152Z,-1.94
2023-03-08T03:56:56.610Z,-1.93
2023-03-08T03:59:33.139Z,-2.07
2023-03-08T04:05:07.837Z,-1.92
2023-03-08T04:07:52.157Z,-2.19
2023-03-08T04:10:36.403Z,-2.20
2023-03-08T04:13:11.777Z,-1.95
2023-03-08T04:15:49.434Z,-2.21
2023-03-08T04:18:20.713Z,-2.17
2023-03-08T04:21:07.093Z,-1.96
2023-03-08T04:23:39.401Z,-2.07
2023-03-08T04:26:32.237Z,-2.06
2023-03-08T04:29:06.700Z,-2.16
2023-03-08T04:31:45.810Z,-2.05
2023-03-08T04:34:19.789Z,-1.90
2023-03-08T04:36:56.161Z,-2.04
2023-03-08T04:39:30.978Z,-2.07
2023-03-08T04:42:12.242Z,-1.98
2023-03-08T04:44:47.285Z,-2.06
2023-03-08T04:47:21.512Z,-1.99
2023-03-08T04:49:55.181Z,-2.04
2023-03-08T04:52:31.280Z,-1.99
2023-03-08T04:55:06.098Z,-1.88
2023-03-08T04:57:53.398Z,-1.82
2023-03-08T05:00:25.376Z,-1.91
2023-03-08T05:03:02.493Z,-1.82
2023-03-08T05:05:39.926Z,-1.90
2023-03-08T05:08:22.374Z,-1.85
2023-03-08T05:11:15.217Z,-1.88
2023-03-08T05:13:42.725Z,-1.87
2023-03-08T05:16:27.901Z,-1.86
2023-03-08T05:21:54.626Z,-1.87
2023-03-08T05:27:30.601Z,-1.79
2023-03-08T05:30:15.487Z,-1.76
2023-03-08T05:32:54.254Z,-1.74
2023-03-08T05:35:31.219Z,-1.48
2023-03-08T05:38:09.444Z,-1.63
2023-03-08T05:40:55.870Z,-1.69
2023-03-08T05:43:36.558Z,-1.68
2023-03-08T05:46:17.090Z,-1.67
2023-03-08T05:48:53.227Z,-1.57
2023-03-08T05:51:28.647Z,-1.63
2023-03-08T05:54:05.600Z,-1.65
2023-03-08T05:56:33.251Z,-1.55
2023-03-08T05:59:14.981Z,-1.64
2023-03-08T06:02:00.159Z,-1.63
2023-03-08T06:04:44.587Z,-1.42
2023-03-08T06:07:14.846Z,-1.64
2023-03-08T06:09:52.492Z,-1.48
2023-03-08T06:12:22.326Z,-1.54
2023-03-08T06:15:02.033Z,-1.51
2023-03-08T06:17:33.637Z,-1.32
2023-03-08T06:20:19.396Z,-1.59
2023-03-08T06:23:06.983Z,-1.48
2023-03-08T06:25:44.966Z,-1.59
2023-03-08T06:28:35.275Z,-1.53
2023-03-08T06:31:26.995Z,-1.55
2023-03-08T06:33:57.284Z,-1.30
2023-03-08T06:36:36.169Z,-1.46
2023-03-08T06:39:14.560Z,-1.36
2023-03-08T06:41:46.705Z,-1.48
2023-03-08T06:44:26.321Z,-1.33
2023-03-08T06:47:03.739Z,-1.47
2023-03-08T06:49:37.110Z,-1.43
2023-03-08T06:52:13.451Z,-1.41
2023-03-08T06:54:48.346Z,-1.28
2023-03-08T06:57:25.315Z,-1.35
2023-03-08T07:00:02.316Z,-1.32
2023-03-08T07:02:36.291Z,-1.19
2023-03-08T07:05:16.061Z,-1.18
2023-03-08T07:07:52.900Z,-1.18
2023-03-08T07:10:30.829Z,-1.28
2023-03-08T07:13:05.116Z,-1.23
2023-03-08T07:15:51.208Z,-1.12
2023-03-08T07:18:21.561Z,-1.20
2023-03-08T07:21:04.071Z,-0.97
2023-03-08T07:23:34.452Z,-1.15
2023-03-08T07:26:21.415Z,-1.06
2023-03-08T07:29:06.867Z,-0.92
2023-03-08T07:31:52.414Z,-1.01
2023-03-08T07:34:19.357Z,-1.16
2023-03-08T07:36:55.140Z,-1.12
2023-03-08T07:39:30.505Z,-1.05
2023-03-08T07:42:05.628Z,-1.10
2023-03-08T07:44:33.049Z,-1.06
2023-03-08T07:47:09.276Z,-1.06
2023-03-08T07:49:43.024Z,-1.05
2023-03-08T07:52:17.359Z,-0.93
2023-03-08T07:54:52.387Z,-0.93
2023-03-08T07:57:43.455Z,-0.98
2023-03-08T08:00:12.361Z,-0.82
2023-03-08T08:02:48.149Z,-0.83
2023-03-08T08:05:21.072Z,-0.70
2023-03-08T08:08:03.350Z,-0.54
2023-03-08T08:10:40.329Z,-0.54
2023-03-08T08:13:21.676Z,-0.46
2023-03-08T08:16:14.207Z,-0.33
2023-03-08T08:18:50.656Z,-0.46
2023-03-08T08:21:30.099Z,-0.51
2023-03-08T08:56:28.536Z,0.19
2023-03-08T09:03:22.512Z,0.25
2023-03-08T09:06:13.291Z,0.31
2023-03-08T09:08:48.607Z,0.27
2023-03-08T09:11:28.110Z,0.27
2023-03-08T09:13:58.106Z,0.31
2023-03-08T09:16:36.438Z,0.32
2023-03-08T09:19:17.885Z,0.39
2023-03-08T09:21:55.117Z,0.48
2023-03-08T09:24:41.792Z,0.62
2023-03-08T09:27:29.786Z,0.61
2023-03-08T09:32:53.969Z,0.76
2023-03-08T09:35:32.601Z,0.87
2023-03-08T09:38:22.988Z,0.94
2023-03-08T09:41:24.560Z,1.05
2023-03-08T09:44:33.709Z,1.24
2023-03-08T09:47:33.174Z,1.19
2023-03-08T09:50:36.656Z,1.21
2023-03-08T09:56:49.020Z,1.14
2023-03-08T09:59:49.903Z,1.19
2023-03-08T10:03:14.360Z,1.31
2023-03-08T10:14:16.549Z,1.59
2023-03-08T10:47:41.801Z,3.27
2023-03-08T11:52:08.517Z,4.07
2023-03-08T13:06:43.231Z,3.56
2023-03-08T13:57:27.909Z,3.42
2023-03-08T14:00:46.284Z,3.40
2023-03-08T14:26:50.489Z,3.36
2023-03-08T14:29:44.042Z,3.41
2023-03-08T14:32:31.501Z,3.40
2023-03-08T14:41:39.710Z,3.26
2023-03-08T15:57:04.868Z,2.07
2023-03-08T16:14:20.131Z,1.88
2023-03-08T16:17:04.603Z,1.95
2023-03-08T16:19:44.589Z,2.05
2023-03-08T16:22:17.979Z,2.03
2023-03-08T16:24:55.632Z,1.83
2023-03-08T16:27:29.834Z,1.82
2023-03-08T16:30:07.520Z,1.86
2023-03-08T16:32:47.960Z,1.78
2023-03-08T16:38:17.869Z,1.95
2023-03-08T16:40:52.726Z,1.93
2023-03-08T16:44:02.679Z,1.91
2023-03-08T16:46:45.228Z,1.76
2023-03-08T16:49:24.865Z,1.84
2023-03-08T16:52:21.962Z,1.68
2023-03-08T16:55:06.004Z,1.80
2023-03-08T16:57:39.269Z,1.61
2023-03-08T17:00:19.928Z,1.66
2023-03-08T17:05:48.720Z,1.55
2023-03-08T17:08:24.178Z,1.46
2023-03-08T17:11:13.637Z,1.48
2023-03-08T17:16:40.076Z,1.58
2023-03-08T17:19:17.679Z,1.35
2023-03-08T17:21:59.460Z,1.30
2023-03-08T17:24:40.786Z,1.52
2023-03-08T17:27:19.479Z,1.49
2023-03-08T17:32:39.820Z,1.20
2023-03-08T17:35:18.595Z,1.17
2023-03-08T17:38:07.536Z,1.12
2023-03-08T17:40:38.596Z,1.28
2023-03-08T17:43:13.624Z,1.07
2023-03-08T17:45:43.988Z,1.03
2023-03-08T17:48:28.005Z,1.12
2023-03-08T17:51:22.277Z,1.13
2023-03-08T17:54:05.864Z,0.96
2023-03-08T17:56:46.256Z,0.94
2023-03-08T17:59:24.706Z,1.06
2023-03-08T18:01:56.860Z,0.91
2023-03-08T18:04:34.054Z,1.01
2023-03-08T18:07:06.507Z,0.92
2023-03-08T18:09:48.242Z,0.96
2023-03-08T18:31:45.046Z,0.83
2023-03-08T18:37:08.260Z,0.82
2023-03-08T18:39:46.714Z,0.77
2023-03-08T18:42:21.831Z,0.98
2023-03-08T18:44:49.229Z,0.83
2023-03-08T18:47:28.153Z,0.77
2023-03-08T18:50:10.091Z,0.76
2023-03-08T18:52:46.303Z,0.93
2023-03-08T18:55:15.611Z,0.72
2023-03-08T18:57:57.790Z,0.75
2023-03-08T19:00:36.464Z,0.91
2023-03-08T19:03:22.424Z,0.88
2023-03-08T19:05:49.770Z,0.75
2023-03-08T19:08:17.345Z,0.65
2023-03-08T19:11:02.111Z,0.83
2023-03-08T19:13:44.597Z,0.72
2023-03-08T19:16:34.960Z,0.66
2023-03-08T19:19:16.312Z,0.52
2023-03-08T19:21:51.254Z,0.55
2023-03-08T19:24:27.676Z,0.59
2023-03-08T19:27:03.669Z,0.51
2023-03-08T19:29:41.470Z,0.49
2023-03-08T19:32:21.442Z,0.43
2023-03-08T19:34:58.267Z,0.41
2023-03-08T19:37:43.824Z,0.40
2023-03-08T19:40:35.167Z,0.55
2023-03-08T19:43:17.360Z,0.45
2023-03-08T19:46:09.146Z,0.52
2023-03-08T19:48:58.760Z,0.46
2023-03-08T19:51:35.890Z,0.47
2023-03-08T19:54:07.371Z,0.49
2023-03-08T19:56:45.523Z,0.50
2023-03-08T19:59:17.908Z,0.65
2023-03-08T20:01:53.627Z,0.49
2023-03-08T20:04:30.222Z,0.71
2023-03-08T20:07:09.898Z,0.55
2023-03-08T20:09:51.331Z,0.57
2023-03-08T20:12:31.716Z,0.51
2023-03-08T20:15:10.553Z,0.64
2023-03-08T20:17:50.686Z,0.51
2023-03-08T20:20:33.377Z,0.56
2023-03-08T20:23:25.418Z,0.49
2023-03-08T20:26:13.644Z,0.52
2023-03-08T21:33:03.548Z,0.61
2023-03-08T21:35:52.329Z,0.56
2023-03-08T21:38:24.912Z,0.58
2023-03-08T21:43:48.469Z,0.46
2023-03-08T21:46:34.085Z,0.44
2023-03-08T21:49:07.215Z,0.43
2023-03-08T21:51:45.587Z,0.42
2023-03-08T21:54:18.882Z,0.41
2023-03-08T21:56:56.844Z,0.48
2023-03-08T22:12:29.921Z,0.19
2023-03-08T22:15:18.042Z,0.23
2023-03-08T22:25:22.232Z,0.28
2023-03-08T22:38:42.560Z,0.17
2023-03-08T22:41:57.669Z,0.06
2023-03-08T22:44:38.913Z,0.05
2023-03-08T22:47:30.638Z,0.03
2023-03-08T22:50:14.554Z,-0.10
2023-03-08T22:52:42.144Z,-0.07
2023-03-08T22:55:12.572Z,-0.07
2023-03-08T22:57:58.545Z,-0.08
2023-03-08T23:00:34.768Z,-0.10
2023-03-08T23:03:27.918Z,0.10
2023-03-08T23:38:47.868Z,-0.22
2023-03-08T23:41:32.246Z,0.03
2023-03-08T23:44:18.630Z,-0.03
2023-03-08T23:49:47.785Z,-0.16
